Time;durP1;ratioP1;P1;durP2;ratioP2;P2;SDS_P1;SDS_P2;PMS_P1;PMS_P2;Temp;Humidity;BMP_temperature;BMP_pressure;BME280_temperature;BME280_humidity;BME280_pressure;Samples;Min_cycle;Max_cycle;Signal;HPM_P1;HPM_P2
2024/01/17 00:00:27;;;;;;;5.38;3.15;;;;;;;;;;5046613;28;20533;-79
2024/01/17 00:02:53;;;;;;;4.35;3.53;;;;;;;;;;5033051;28;20059;-79
2024/01/17 00:05:19;;;;;;;5.50;3.00;;;;;;;;;;5031932;28;20029;-81
2024/01/17 00:07:44;;;;;;;4.70;3.85;;;;;;;;;;5032429;28;20496;-80
2024/01/17 00:10:10;;;;;;;2.97;2.10;;;;;;;;;;5034544;28;20037;-80
2024/01/17 00:12:35;;;;;;;2.72;1.77;;;;;;;;;;5031882;28;20125;-79
2024/01/17 00:15:01;;;;;;;3.53;2.78;;;;;;;;;;5027390;28;20044;-80
2024/01/17 00:17:27;;;;;;;6.35;1.63;;;;;;;;;;5030812;28;20029;-80
2024/01/17 00:19:53;;;;;;;5.28;4.00;;;;;;;;;;5028495;28;20037;-79
2024/01/17 00:22:18;;;;;;;10.18;4.63;;;;;;;;;;5033009;28;20115;-80
2024/01/17 00:24:44;;;;;;;5.63;3.38;;;;;;;;;;5035808;28;20036;-81
2024/01/17 00:27:12;;;;;;;14.20;3.17;;;;;;;;;;5034504;28;20029;-80
2024/01/17 00:29:38;;;;;;;3.20;2.95;;;;;;;;;;5033955;28;20033;-80
2024/01/17 00:32:04;;;;;;;3.30;1.08;;;;;;;;;;5033475;28;20040;-80
2024/01/17 00:34:29;;;;;;;2.25;2.05;;;;;;;;;;5030424;28;20477;-79
2024/01/17 00:36:55;;;;;;;1.55;1.45;;;;;;;;;;5032764;28;20061;-80
2024/01/17 00:39:22;;;;;;;0.45;0.45;;;;;;;;;;5031849;28;20056;-81
2024/01/17 00:41:55;;;;;;;3.00;1.52;;;;;;;;;;5032311;28;20052;-80
2024/01/17 00:44:21;;;;;;;0.60;0.60;;;;;;;;;;5029548;28;20029;-80
2024/01/17 00:46:47;;;;;;;2.70;1.80;;;;;;;;;;5029864;28;20033;-80
2024/01/17 00:49:13;;;;;;;1.63;1.52;;;;;;;;;;5031711;28;20537;-80
2024/01/17 00:51:38;;;;;;;7.50;2.28;;;;;;;;;;5030224;28;20107;-80
2024/01/17 00:54:06;;;;;;;1.92;1.38;;;;;;;;;;5030605;28;20065;-82
2024/01/17 00:56:34;;;;;;;1.00;1.00;;;;;;;;;;5031467;28;20065;-81
2024/01/17 00:59:03;;;;;;;0.88;0.88;;;;;;;;;;5030966;28;20026;-80
2024/01/17 01:01:30;;;;;;;0.55;0.55;;;;;;;;;;5029174;28;20033;-81
2024/01/17 01:04:01;;;;;;;1.02;0.80;;;;;;;;;;5031162;28;20389;-81
2024/01/17 01:06:27;;;;;;;2.33;1.58;;;;;;;;;;5031420;28;20452;-81
2024/01/17 01:08:55;;;;;;;0.40;0.40;;;;;;;;;;5029578;28;20030;-82
2024/01/17 01:11:20;;;;;;;0.68;0.68;;;;;;;;;;5031394;28;20034;-81
2024/01/17 01:13:46;;;;;;;1.40;0.70;;;;;;;;;;5031892;28;20034;-82
2024/01/17 01:16:11;;;;;;;0.82;0.82;;;;;;;;;;5032353;28;20048;-80
2024/01/17 01:18:37;;;;;;;0.40;0.40;;;;;;;;;;5033271;28;20037;-81
2024/01/17 01:21:03;;;;;;;0.70;0.68;;;;;;;;;;5051604;28;20032;-82
2024/01/17 01:23:29;;;;;;;0.98;0.98;;;;;;;;;;5033632;28;20132;-81
2024/01/17 01:25:54;;;;;;;0.52;0.52;;;;;;;;;;5029187;28;20030;-82
2024/01/17 01:28:20;;;;;;;1.83;1.67;;;;;;;;;;5030400;28;20029;-81
2024/01/17 01:30:48;;;;;;;1.80;1.10;;;;;;;;;;5032159;28;20287;-81
2024/01/17 01:33:13;;;;;;;0.52;0.52;;;;;;;;;;5034621;28;20038;-81
2024/01/17 01:35:39;;;;;;;1.23;0.60;;;;;;;;;;5035163;28;20151;-82
2024/01/17 01:38:04;;;;;;;3.38;2.92;;;;;;;;;;5033596;28;20033;-82
2024/01/17 01:40:32;;;;;;;7.15;1.88;;;;;;;;;;5033219;28;21926;-80
2024/01/17 01:43:00;;;;;;;2.40;1.10;;;;;;;;;;5033556;28;20113;-81
2024/01/17 01:45:25;;;;;;;1.52;0.95;;;;;;;;;;5035266;28;20025;-81
2024/01/17 01:47:54;;;;;;;0.75;0.75;;;;;;;;;;5038556;28;20025;-81
2024/01/17 01:50:20;;;;;;;1.30;1.30;;;;;;;;;;5035052;28;20390;-81
2024/01/17 01:52:49;;;;;;;1.25;1.15;;;;;;;;;;5034914;28;20555;-82
2024/01/17 01:55:14;;;;;;;0.85;0.85;;;;;;;;;;5036434;28;20040;-82
2024/01/17 01:57:46;;;;;;;2.20;1.23;;;;;;;;;;5033873;28;20045;-80
2024/01/17 02:00:12;;;;;;;0.43;0.43;;;;;;;;;;5037244;28;20045;-81
2024/01/17 02:02:41;;;;;;;1.77;1.08;;;;;;;;;;5037494;28;20029;-81
2024/01/17 02:05:07;;;;;;;0.85;0.85;;;;;;;;;;5036518;28;20029;-81
2024/01/17 02:07:45;;;;;;;1.42;1.23;;;;;;;;;;5035762;28;20088;-81
2024/01/17 02:10:11;;;;;;;1.23;1.13;;;;;;;;;;5037311;28;20064;-83
2024/01/17 02:12:37;;;;;;;0.82;0.82;;;;;;;;;;5036403;28;20101;-82
2024/01/17 02:15:02;;;;;;;0.50;0.50;;;;;;;;;;5038711;28;20390;-82
2024/01/17 02:17:31;;;;;;;1.75;0.82;;;;;;;;;;5034491;28;20049;-80
2024/01/17 02:20:07;;;;;;;1.40;1.30;;;;;;;;;;5034168;28;20060;-80
2024/01/17 02:22:32;;;;;;;1.10;1.10;;;;;;;;;;5033147;28;20187;-80
2024/01/17 02:25:03;;;;;;;0.90;0.52;;;;;;;;;;5035746;28;20558;-82
2024/01/17 02:27:28;;;;;;;0.45;0.45;;;;;;;;;;5033698;28;20478;-82
2024/01/17 02:29:54;;;;;;;0.75;0.75;;;;;;;;;;5032687;28;20048;-82
2024/01/17 02:32:20;;;;;;;1.73;0.82;;;;;;;;;;5032608;28;20036;-81
2024/01/17 02:34:45;;;;;;;5.55;1.20;;;;;;;;;;5034870;28;20041;-82
2024/01/17 02:37:14;;;;;;;2.30;1.48;;;;;;;;;;5034644;28;20029;-80
2024/01/17 02:39:40;;;;;;;0.52;0.52;;;;;;;;;;5034914;28;20025;-80
2024/01/17 02:42:05;;;;;;;1.75;1.23;;;;;;;;;;5035012;28;20099;-79
2024/01/17 02:44:31;;;;;;;1.25;1.20;;;;;;;;;;5032649;28;20091;-80
2024/01/17 02:46:58;;;;;;;0.80;0.80;;;;;;;;;;5032514;28;20025;-81
2024/01/17 02:49:24;;;;;;;1.55;1.45;;;;;;;;;;5033112;28;20033;-83
2024/01/17 02:51:52;;;;;;;0.77;0.77;;;;;;;;;;5033369;28;20038;-82
2024/01/17 02:54:21;;;;;;;0.68;0.68;;;;;;;;;;5034054;28;20029;-82
2024/01/17 02:56:47;;;;;;;0.70;0.70;;;;;;;;;;5034571;28;20032;-81
2024/01/17 02:59:14;;;;;;;1.00;0.90;;;;;;;;;;5032329;28;20108;-81
2024/01/17 03:01:40;;;;;;;5.45;2.53;;;;;;;;;;5033283;28;20075;-81
2024/01/17 03:04:05;;;;;;;3.85;2.22;;;;;;;;;;5032038;28;20079;-81
2024/01/17 03:06:31;;;;;;;3.50;2.53;;;;;;;;;;5033057;28;20408;-82
2024/01/17 03:08:57;;;;;;;3.08;1.33;;;;;;;;;;5033145;28;20057;-81
2024/01/17 03:11:22;;;;;;;1.67;1.58;;;;;;;;;;5031959;28;20041;-82
2024/01/17 03:13:50;;;;;;;0.73;0.73;;;;;;;;;;5031547;28;20108;-81
2024/01/17 03:16:19;;;;;;;1.42;1.33;;;;;;;;;;5033919;28;20075;-82
2024/01/17 03:18:45;;;;;;;1.13;0.88;;;;;;;;;;5032976;28;20033;-81
2024/01/17 03:21:16;;;;;;;0.47;0.47;;;;;;;;;;5033155;28;20033;-81
2024/01/17 03:23:45;;;;;;;1.35;1.20;;;;;;;;;;5031472;28;20037;-81
2024/01/17 03:26:19;;;;;;;2.03;1.35;;;;;;;;;;5032797;28;20116;-81
2024/01/17 03:28:46;;;;;;;2.42;1.15;;;;;;;;;;5047220;28;20613;-83
2024/01/17 03:31:12;;;;;;;2.88;1.58;;;;;;;;;;5033150;28;20628;-82
2024/01/17 03:33:38;;;;;;;2.08;1.25;;;;;;;;;;5034301;28;20021;-81
2024/01/17 03:36:03;;;;;;;2.10;1.40;;;;;;;;;;5034157;28;20025;-81
2024/01/17 03:38:31;;;;;;;1.73;1.48;;;;;;;;;;5030885;28;20044;-80
2024/01/17 03:41:01;;;;;;;3.10;2.17;;;;;;;;;;5033067;28;20040;-81
2024/01/17 03:43:26;;;;;;;2.35;2.15;;;;;;;;;;5032136;28;20033;-81
2024/01/17 03:45:53;;;;;;;1.95;1.63;;;;;;;;;;5033518;28;20033;-83
2024/01/17 03:48:22;;;;;;;1.10;1.10;;;;;;;;;;5030533;28;20472;-81
2024/01/17 03:50:47;;;;;;;0.68;0.68;;;;;;;;;;5032618;28;20043;-81
2024/01/17 03:53:13;;;;;;;0.82;0.60;;;;;;;;;;5031884;28;20042;-81
2024/01/17 03:55:38;;;;;;;1.95;1.55;;;;;;;;;;5030868;28;20044;-83
2024/01/17 03:58:06;;;;;;;1.05;1.00;;;;;;;;;;5030577;28;20079;-82
2024/01/17 04:00:31;;;;;;;4.45;2.53;;;;;;;;;;5030204;28;20116;-83
2024/01/17 04:02:57;;;;;;;2.08;0.88;;;;;;;;;;5034148;28;20121;-81
2024/01/17 04:05:22;;;;;;;1.83;1.73;;;;;;;;;;5032460;28;20026;-81
2024/01/17 04:07:48;;;;;;;2.47;1.23;;;;;;;;;;5031729;28;20056;-82
2024/01/17 04:10:13;;;;;;;3.35;2.30;;;;;;;;;;5032523;28;20473;-81
2024/01/17 04:12:39;;;;;;;1.73;1.50;;;;;;;;;;5029539;28;20029;-80
2024/01/17 04:15:06;;;;;;;2.25;1.65;;;;;;;;;;5030679;28;20041;-81
2024/01/17 04:17:31;;;;;;;3.78;3.47;;;;;;;;;;5030758;28;20124;-83
2024/01/17 04:19:56;;;;;;;2.63;2.42;;;;;;;;;;5029847;28;20116;-82
2024/01/17 04:22:24;;;;;;;3.25;2.38;;;;;;;;;;5029875;28;20025;-81
2024/01/17 04:24:50;;;;;;;4.57;3.80;;;;;;;;;;5033709;28;20021;-81
2024/01/17 04:27:15;;;;;;;2.90;2.70;;;;;;;;;;5031205;28;20167;-82
2024/01/17 04:29:40;;;;;;;1.88;1.77;;;;;;;;;;5029474;28;20052;-81
2024/01/17 04:32:09;;;;;;;2.70;2.45;;;;;;;;;;5032743;28;20086;-81
2024/01/17 04:34:34;;;;;;;2.80;2.10;;;;;;;;;;5030597;28;20036;-81
2024/01/17 04:37:00;;;;;;;5.95;3.03;;;;;;;;;;5029433;28;20033;-81
2024/01/17 04:39:25;;;;;;;1.45;1.35;;;;;;;;;;5030672;28;20025;-80
2024/01/17 04:41:56;;;;;;;5.25;3.58;;;;;;;;;;5037146;28;20025;-81
2024/01/17 04:44:22;;;;;;;5.95;2.90;;;;;;;;;;5033247;28;20354;-80
2024/01/17 04:46:47;;;;;;;2.08;1.88;;;;;;;;;;5031296;28;20029;-82
2024/01/17 04:49:16;;;;;;;3.15;2.85;;;;;;;;;;5033363;28;20049;-83
2024/01/17 04:51:50;;;;;;;1.85;1.75;;;;;;;;;;5032334;28;20547;-82
2024/01/17 04:54:26;;;;;;;2.65;2.13;;;;;;;;;;5035587;28;20032;-81
2024/01/17 04:56:57;;;;;;;4.75;2.80;;;;;;;;;;5062358;28;20465;-83
2024/01/17 04:59:26;;;;;;;4.65;2.70;;;;;;;;;;5030661;28;20021;-82
2024/01/17 05:01:54;;;;;;;2.10;2.00;;;;;;;;;;5030350;28;20061;-82
2024/01/17 05:04:31;;;;;;;3.95;3.15;;;;;;;;;;5031264;28;20546;-81
2024/01/17 05:06:56;;;;;;;2.78;1.70;;;;;;;;;;5030074;28;20037;-81
2024/01/17 05:09:27;;;;;;;2.55;2.30;;;;;;;;;;5034393;28;20535;-82
2024/01/17 05:11:58;;;;;;;3.08;2.78;;;;;;;;;;5029544;28;20358;-82
2024/01/17 05:14:32;;;;;;;1.98;1.88;;;;;;;;;;5030443;28;20754;-81
2024/01/17 05:16:58;;;;;;;4.35;2.88;;;;;;;;;;5032498;28;20029;-83
2024/01/17 05:19:23;;;;;;;1.33;1.25;;;;;;;;;;5034091;28;20036;-82
2024/01/17 05:21:49;;;;;;;8.30;4.65;;;;;;;;;;5034865;28;20052;-83
2024/01/17 05:24:27;;;;;;;2.92;1.70;;;;;;;;;;5034278;28;20035;-83
2024/01/17 05:27:01;;;;;;;1.58;1.48;;;;;;;;;;5032074;28;20048;-84
2024/01/17 05:29:37;;;;;;;2.35;2.03;;;;;;;;;;5033426;28;20661;-83
2024/01/17 05:32:05;;;;;;;5.20;2.05;;;;;;;;;;5031544;28;20032;-81
2024/01/17 05:34:37;;;;;;;1.85;1.70;;;;;;;;;;5032784;28;20025;-83
2024/01/17 05:37:11;;;;;;;3.72;3.28;;;;;;;;;;5035464;28;20354;-82
2024/01/17 05:39:38;;;;;;;1.73;1.63;;;;;;;;;;5034974;28;20076;-83
2024/01/17 05:42:07;;;;;;;10.13;3.08;;;;;;;;;;5034978;28;20061;-81
2024/01/17 05:44:35;;;;;;;1.08;0.98;;;;;;;;;;5034835;28;20491;-84
2024/01/17 05:47:00;;;;;;;4.90;2.10;;;;;;;;;;5033139;28;20041;-81
2024/01/17 05:49:28;;;;;;;2.35;2.10;;;;;;;;;;5035154;28;20036;-82
2024/01/17 05:51:56;;;;;;;2.42;1.90;;;;;;;;;;5034175;28;20133;-84
2024/01/17 05:54:22;;;;;;;3.85;3.00;;;;;;;;;;5031635;28;20041;-81
2024/01/17 05:56:53;;;;;;;3.63;3.22;;;;;;;;;;5033757;28;20489;-83
2024/01/17 05:59:24;;;;;;;1.75;1.63;;;;;;;;;;5035248;28;20078;-83
2024/01/17 06:01:49;;;;;;;4.93;3.47;;;;;;;;;;5031998;28;20045;-82
2024/01/17 06:04:15;;;;;;;5.80;3.03;;;;;;;;;;5035078;28;20033;-80
2024/01/17 06:06:43;;;;;;;4.30;2.40;;;;;;;;;;5032975;28;20028;-82
2024/01/17 06:09:12;;;;;;;4.57;4.10;;;;;;;;;;5031551;28;20033;-80
2024/01/17 06:11:37;;;;;;;2.10;2.00;;;;;;;;;;5032003;28;20036;-80
2024/01/17 06:14:10;;;;;;;3.20;2.25;;;;;;;;;;5033248;28;20096;-82
2024/01/17 06:16:47;;;;;;;6.10;3.60;;;;;;;;;;5033595;28;20515;-81
2024/01/17 06:19:15;;;;;;;4.32;2.92;;;;;;;;;;5030838;28;20036;-80
2024/01/17 06:21:40;;;;;;;2.95;2.35;;;;;;;;;;5031483;28;20037;-81
2024/01/17 06:24:09;;;;;;;4.60;2.97;;;;;;;;;;5031764;28;20033;-80
2024/01/17 06:26:34;;;;;;;5.15;4.32;;;;;;;;;;5027779;28;20083;-79
2024/01/17 06:29:00;;;;;;;4.72;3.35;;;;;;;;;;5033382;28;20033;-82
2024/01/17 06:31:25;;;;;;;5.70;4.72;;;;;;;;;;5031613;28;20117;-83
2024/01/17 06:33:57;;;;;;;7.65;4.20;;;;;;;;;;5029566;28;20037;-81
2024/01/17 06:36:23;;;;;;;9.02;6.65;;;;;;;;;;5029763;28;20035;-82
2024/01/17 06:38:48;;;;;;;6.07;5.15;;;;;;;;;;5029360;28;22072;-81
2024/01/17 06:41:14;;;;;;;3.10;1.98;;;;;;;;;;5030630;28;20123;-81
2024/01/17 06:43:39;;;;;;;3.17;2.95;;;;;;;;;;5029300;28;20095;-80
2024/01/17 06:46:05;;;;;;;9.20;3.65;;;;;;;;;;5031701;28;20029;-81
2024/01/17 06:48:31;;;;;;;2.88;2.60;;;;;;;;;;5029264;28;20072;-81
2024/01/17 06:50:56;;;;;;;3.90;3.58;;;;;;;;;;5033123;28;20094;-78
2024/01/17 06:53:22;;;;;;;18.00;8.80;;;;;;;;;;5027753;28;20045;-79
2024/01/17 06:55:50;;;;;;;6.10;5.28;;;;;;;;;;5030114;28;20432;-81
2024/01/17 06:58:16;;;;;;;18.80;8.02;;;;;;;;;;5029508;28;20025;-80
2024/01/17 07:00:43;;;;;;;8.40;7.32;;;;;;;;;;5028025;28;20029;-79
2024/01/17 07:03:08;;;;;;;15.50;8.20;;;;;;;;;;5028382;28;20436;-77
2024/01/17 07:05:34;;;;;;;14.90;8.48;;;;;;;;;;5029253;28;20043;-81
2024/01/17 07:07:59;;;;;;;12.73;6.13;;;;;;;;;;5028602;28;20025;-79
2024/01/17 07:10:24;;;;;;;9.73;7.07;;;;;;;;;;5028113;28;20515;-79
2024/01/17 07:12:53;;;;;;;9.60;5.80;;;;;;;;;;5029283;28;20021;-79
2024/01/17 07:15:18;;;;;;;6.20;5.18;;;;;;;;;;5030328;28;20033;-79
2024/01/17 07:17:44;;;;;;;9.55;5.97;;;;;;;;;;5030845;28;20034;-79
2024/01/17 07:20:10;;;;;;;6.55;5.35;;;;;;;;;;5029616;28;20104;-81
2024/01/17 07:22:41;;;;;;;4.70;4.30;;;;;;;;;;5029314;28;20032;-80
2024/01/17 07:25:12;;;;;;;6.10;5.38;;;;;;;;;;5029871;28;20414;-80
2024/01/17 07:27:43;;;;;;;15.45;6.97;;;;;;;;;;5027732;28;20405;-80
2024/01/17 07:30:10;;;;;;;10.02;3.88;;;;;;;;;;5029121;28;20032;-80
2024/01/17 07:32:35;;;;;;;12.50;10.73;;;;;;;;;;5028223;28;20038;-81
2024/01/17 07:35:06;;;;;;;12.45;7.38;;;;;;;;;;5028541;28;20441;-85
2024/01/17 07:37:32;;;;;;;27.65;10.25;;;;;;;;;;5027123;28;20477;-79
2024/01/17 07:39:58;;;;;;;18.52;9.82;;;;;;;;;;5028739;28;20067;-77
2024/01/17 07:42:23;;;;;;;12.75;9.23;;;;;;;;;;5027252;28;20022;-79
2024/01/17 07:44:49;;;;;;;16.05;8.15;;;;;;;;;;5027669;28;20372;-79
2024/01/17 07:47:15;;;;;;;17.45;10.98;;;;;;;;;;5027437;28;20135;-79
2024/01/17 07:49:40;;;;;;;8.88;6.53;;;;;;;;;;5028050;28;20077;-80
2024/01/17 07:52:06;;;;;;;14.45;10.77;;;;;;;;;;5027829;28;20040;-79
2024/01/17 07:54:34;;;;;;;17.55;10.57;;;;;;;;;;5029370;28;20114;-79
2024/01/17 07:57:00;;;;;;;14.43;11.77;;;;;;;;;;5028314;28;20028;-79
2024/01/17 07:59:27;;;;;;;18.10;11.75;;;;;;;;;;5028955;28;20025;-81
2024/01/17 08:01:53;;;;;;;16.45;10.35;;;;;;;;;;5027750;28;20029;-80
2024/01/17 08:04:19;;;;;;;13.43;10.63;;;;;;;;;;5029769;28;20056;-79
2024/01/17 08:06:44;;;;;;;8.55;6.88;;;;;;;;;;5028369;28;20057;-79
2024/01/17 08:09:24;;;;;;;18.48;10.50;;;;;;;;;;5027020;28;20056;-80
2024/01/17 08:11:54;;;;;;;7.75;6.13;;;;;;;;;;5029911;28;20030;-79
2024/01/17 08:14:20;;;;;;;8.25;6.05;;;;;;;;;;5029508;28;20044;-77
2024/01/17 08:16:47;;;;;;;13.93;8.48;;;;;;;;;;5031201;28;20056;-78
2024/01/17 08:19:14;;;;;;;7.75;6.72;;;;;;;;;;5029347;28;20036;-78
2024/01/17 08:21:41;;;;;;;10.60;8.60;;;;;;;;;;5029350;28;20475;-79
2024/01/17 08:24:06;;;;;;;20.25;11.52;;;;;;;;;;5029466;28;20032;-81
2024/01/17 08:26:32;;;;;;;19.00;12.73;;;;;;;;;;5029418;28;20029;-80
2024/01/17 08:28:57;;;;;;;11.77;6.95;;;;;;;;;;5029543;28;20025;-78
2024/01/17 08:31:23;;;;;;;14.57;9.43;;;;;;;;;;5029770;28;20063;-79
2024/01/17 08:33:50;;;;;;;18.35;7.85;;;;;;;;;;5029471;28;20087;-79
2024/01/17 08:36:16;;;;;;;8.45;5.65;;;;;;;;;;5028139;28;20485;-80
2024/01/17 08:38:42;;;;;;;20.00;10.73;;;;;;;;;;5028463;28;20065;-80
2024/01/17 08:41:10;;;;;;;12.10;9.18;;;;;;;;;;5029316;28;20053;-79
2024/01/17 08:43:36;;;;;;;13.38;8.00;;;;;;;;;;5028915;28;20686;-79
2024/01/17 08:46:02;;;;;;;20.75;8.77;;;;;;;;;;5028420;28;20034;-80
2024/01/17 08:48:28;;;;;;;25.77;13.57;;;;;;;;;;5028591;28;20080;-79
2024/01/17 08:50:54;;;;;;;9.65;8.68;;;;;;;;;;5027845;28;20056;-80
2024/01/17 08:53:19;;;;;;;15.52;10.93;;;;;;;;;;5027325;28;20081;-79
2024/01/17 08:55:45;;;;;;;10.70;8.65;;;;;;;;;;5028982;28;20397;-80
2024/01/17 08:58:11;;;;;;;14.15;8.02;;;;;;;;;;5029724;28;20483;-80
2024/01/17 09:00:37;;;;;;;10.23;9.18;;;;;;;;;;5029725;28;20516;-81
2024/01/17 09:03:02;;;;;;;16.75;10.60;;;;;;;;;;5028507;28;20052;-81
2024/01/17 09:05:28;;;;;;;17.42;10.02;;;;;;;;;;5028831;28;20029;-80
2024/01/17 09:07:53;;;;;;;9.80;4.65;;;;;;;;;;5029786;28;20065;-79
2024/01/17 09:10:20;;;;;;;14.35;7.90;;;;;;;;;;5030146;28;20091;-81
2024/01/17 09:12:45;;;;;;;25.52;13.32;;;;;;;;;;5030682;28;20026;-79
2024/01/17 09:15:11;;;;;;;14.73;11.50;;;;;;;;;;5028806;28;20354;-79
2024/01/17 09:17:36;;;;;;;16.45;9.30;;;;;;;;;;5026359;28;20606;-79
2024/01/17 09:20:03;;;;;;;17.05;10.52;;;;;;;;;;5030185;28;20520;-82
2024/01/17 09:22:29;;;;;;;19.30;11.23;;;;;;;;;;5025490;28;20075;-80
2024/01/17 09:24:54;;;;;;;13.93;10.45;;;;;;;;;;5029014;28;20029;-80
2024/01/17 09:27:20;;;;;;;25.00;12.43;;;;;;;;;;5026889;28;20158;-80
2024/01/17 09:29:45;;;;;;;35.20;11.82;;;;;;;;;;5026022;28;20063;-79
2024/01/17 09:32:12;;;;;;;17.55;12.70;;;;;;;;;;5026975;28;21933;-80
2024/01/17 09:34:38;;;;;;;15.95;12.63;;;;;;;;;;5027116;28;20033;-80
2024/01/17 09:37:04;;;;;;;11.63;7.55;;;;;;;;;;5027759;28;20029;-81
2024/01/17 09:39:30;;;;;;;17.75;8.50;;;;;;;;;;5028467;28;20129;-80
2024/01/17 09:42:00;;;;;;;18.00;9.55;;;;;;;;;;5029479;28;20022;-80
2024/01/17 09:44:27;;;;;;;16.17;8.82;;;;;;;;;;5027175;28;22638;-81
2024/01/17 09:46:52;;;;;;;16.77;8.82;;;;;;;;;;5028120;28;20033;-80
2024/01/17 09:49:18;;;;;;;15.48;8.38;;;;;;;;;;5028223;28;20040;-79
2024/01/17 09:51:44;;;;;;;15.63;10.07;;;;;;;;;;5027022;28;20053;-80
2024/01/17 09:54:10;;;;;;;18.33;10.65;;;;;;;;;;5027612;28;20060;-80
2024/01/17 09:56:39;;;;;;;9.45;7.28;;;;;;;;;;5027081;28;20119;-79
2024/01/17 09:59:16;;;;;;;17.52;8.70;;;;;;;;;;5028565;28;20025;-79
2024/01/17 10:01:43;;;;;;;16.95;10.65;;;;;;;;;;5027947;28;20354;-79
2024/01/17 10:04:11;;;;;;;9.38;7.50;;;;;;;;;;5028862;28;20416;-80
2024/01/17 10:06:39;;;;;;;33.03;12.35;;;;;;;;;;5029653;28;20125;-78
2024/01/17 10:09:06;;;;;;;11.93;6.85;;;;;;;;;;5032329;28;20036;-79
2024/01/17 10:11:32;;;;;;;9.95;7.03;;;;;;;;;;5029723;28;20086;-82
2024/01/17 10:13:57;;;;;;;9.18;5.22;;;;;;;;;;5031023;28;20464;-79
2024/01/17 10:16:25;;;;;;;11.63;6.15;;;;;;;;;;5029956;28;20036;-80
2024/01/17 10:18:51;;;;;;;8.88;6.82;;;;;;;;;;5029488;28;20029;-79
2024/01/17 10:21:17;;;;;;;10.32;8.57;;;;;;;;;;5032808;28;20032;-79
2024/01/17 10:23:42;;;;;;;7.15;6.55;;;;;;;;;;5030024;28;20026;-80
2024/01/17 10:26:09;;;;;;;8.65;6.38;;;;;;;;;;5029614;28;20029;-80
2024/01/17 10:28:34;;;;;;;9.57;7.53;;;;;;;;;;5030399;28;21258;-78
2024/01/17 10:31:05;;;;;;;13.00;7.90;;;;;;;;;;5029820;28;20033;-80
2024/01/17 10:33:32;;;;;;;20.20;10.82;;;;;;;;;;5031080;28;20533;-80
2024/01/17 10:35:58;;;;;;;20.52;10.23;;;;;;;;;;5031344;28;20068;-82
2024/01/17 10:38:24;;;;;;;19.63;13.23;;;;;;;;;;5031482;28;20484;-79
2024/01/17 10:41:06;;;;;;;28.05;12.25;;;;;;;;;;5029932;28;20124;-80
2024/01/17 10:43:32;;;;;;;14.75;10.57;;;;;;;;;;5030374;28;20024;-80
2024/01/17 10:46:01;;;;;;;11.23;10.02;;;;;;;;;;5031530;28;20369;-80
2024/01/17 10:48:26;;;;;;;17.48;9.25;;;;;;;;;;5030747;28;20055;-80
2024/01/17 10:50:59;;;;;;;9.13;7.88;;;;;;;;;;5031298;28;20056;-78
2024/01/17 10:53:27;;;;;;;18.02;9.68;;;;;;;;;;5029934;28;20045;-78
2024/01/17 10:55:55;;;;;;;17.67;8.80;;;;;;;;;;5029890;28;20481;-79
2024/01/17 10:58:21;;;;;;;16.60;9.88;;;;;;;;;;5028445;28;20485;-80
2024/01/17 11:00:49;;;;;;;18.35;8.68;;;;;;;;;;5029040;28;20029;-79
2024/01/17 11:03:20;;;;;;;12.02;7.25;;;;;;;;;;5029259;28;20102;-80
2024/01/17 11:05:50;;;;;;;13.40;7.25;;;;;;;;;;5028057;28;20489;-80
2024/01/17 11:08:18;;;;;;;12.50;8.10;;;;;;;;;;5030624;28;20350;-79
2024/01/17 11:10:44;;;;;;;16.65;8.85;;;;;;;;;;5030615;28;20038;-79
2024/01/17 11:13:13;;;;;;;19.88;12.15;;;;;;;;;;5027782;28;20026;-79
2024/01/17 11:15:39;;;;;;;17.02;8.95;;;;;;;;;;5029498;28;20037;-78
2024/01/17 11:18:07;;;;;;;11.05;7.07;;;;;;;;;;5030764;28;21849;-80
2024/01/17 11:20:37;;;;;;;11.60;7.53;;;;;;;;;;5027927;28;20034;-80
2024/01/17 11:23:03;;;;;;;13.95;7.90;;;;;;;;;;5029473;28;20496;-79
2024/01/17 11:25:36;;;;;;;10.07;7.68;;;;;;;;;;5028659;28;20042;-80
2024/01/17 11:28:22;;;;;;;13.05;10.32;;;;;;;;;;5027705;28;20037;-79
2024/01/17 11:31:11;;;;;;;21.92;8.55;;;;;;;;;;5031831;28;20033;-80
2024/01/17 11:33:38;;;;;;;15.90;6.68;;;;;;;;;;5029096;28;20057;-78
2024/01/17 11:36:04;;;;;;;10.60;7.22;;;;;;;;;;5027556;28;21346;-81
2024/01/17 11:38:33;;;;;;;13.05;9.02;;;;;;;;;;5029674;28;20109;-80
2024/01/17 11:41:06;;;;;;;10.95;8.00;;;;;;;;;;5031199;28;20018;-81
2024/01/17 11:43:36;;;;;;;9.88;8.23;;;;;;;;;;5029651;28;20025;-80
2024/01/17 11:46:08;;;;;;;13.00;9.18;;;;;;;;;;5029473;28;20033;-79
2024/01/17 11:48:35;;;;;;;7.65;6.63;;;;;;;;;;5029390;28;20036;-80
2024/01/17 11:51:16;;;;;;;10.65;7.57;;;;;;;;;;5029419;28;20036;-80
2024/01/17 11:53:46;;;;;;;31.95;9.65;;;;;;;;;;5028382;28;20052;-80
2024/01/17 11:56:13;;;;;;;16.40;8.95;;;;;;;;;;5029259;28;20048;-79
2024/01/17 11:58:42;;;;;;;13.63;6.43;;;;;;;;;;5030651;28;20060;-80
2024/01/17 12:01:14;;;;;;;9.23;5.95;;;;;;;;;;5030813;28;20052;-79
2024/01/17 12:03:42;;;;;;;10.45;6.65;;;;;;;;;;5029579;28;20021;-78
2024/01/17 12:06:09;;;;;;;12.93;7.40;;;;;;;;;;5029491;28;20026;-81
2024/01/17 12:08:35;;;;;;;3.78;3.42;;;;;;;;;;5030031;28;20151;-79
2024/01/17 12:11:01;;;;;;;10.45;5.80;;;;;;;;;;5029928;28;20037;-79
2024/01/17 12:13:27;;;;;;;14.10;5.28;;;;;;;;;;5027493;28;20080;-78
2024/01/17 12:15:56;;;;;;;9.35;6.53;;;;;;;;;;5028744;28;20025;-80
2024/01/17 12:18:26;;;;;;;12.65;7.03;;;;;;;;;;5029605;28;20785;-81
2024/01/17 12:20:54;;;;;;;13.68;6.55;;;;;;;;;;5028128;28;20116;-81
2024/01/17 12:23:30;;;;;;;11.02;6.72;;;;;;;;;;5029339;28;20021;-82
2024/01/17 12:25:55;;;;;;;14.13;6.47;;;;;;;;;;5029757;28;20531;-81
2024/01/17 12:28:22;;;;;;;12.63;7.75;;;;;;;;;;5028007;28;20029;-78
2024/01/17 12:31:00;;;;;;;8.50;5.55;;;;;;;;;;5028532;28;20048;-80
2024/01/17 12:33:36;;;;;;;4.90;4.40;;;;;;;;;;5026319;28;20563;-80
2024/01/17 12:36:04;;;;;;;8.27;6.38;;;;;;;;;;5028015;28;20033;-78
2024/01/17 12:38:31;;;;;;;10.70;5.85;;;;;;;;;;5026642;28;20036;-81
2024/01/17 12:40:58;;;;;;;7.20;5.97;;;;;;;;;;5027586;28;20026;-80
2024/01/17 12:43:27;;;;;;;9.30;6.07;;;;;;;;;;5027177;28;20036;-79
2024/01/17 12:45:53;;;;;;;11.23;6.63;;;;;;;;;;5027631;28;20029;-81
2024/01/17 12:48:22;;;;;;;9.02;5.50;;;;;;;;;;5027244;28;20029;-78
2024/01/17 12:50:54;;;;;;;8.50;5.45;;;;;;;;;;5028300;28;20052;-80
2024/01/17 12:53:22;;;;;;;10.20;5.65;;;;;;;;;;5029099;28;20119;-79
2024/01/17 12:55:49;;;;;;;16.00;6.45;;;;;;;;;;5029254;28;20082;-81
2024/01/17 12:58:18;;;;;;;13.63;4.78;;;;;;;;;;5027031;28;20370;-80
2024/01/17 13:00:47;;;;;;;8.48;5.57;;;;;;;;;;5029383;28;20389;-79
2024/01/17 13:03:16;;;;;;;9.10;4.75;;;;;;;;;;5029288;28;20025;-81
2024/01/17 13:05:45;;;;;;;5.40;4.38;;;;;;;;;;5028011;28;20037;-80
2024/01/17 13:08:16;;;;;;;9.10;5.10;;;;;;;;;;5028183;28;20041;-78
2024/01/17 13:10:44;;;;;;;8.75;5.95;;;;;;;;;;5028021;28;20045;-78
2024/01/17 13:13:10;;;;;;;15.02;4.57;;;;;;;;;;5028353;28;20029;-81
2024/01/17 13:15:39;;;;;;;9.98;4.45;;;;;;;;;;5028334;28;20481;-81
2024/01/17 13:18:08;;;;;;;8.95;4.60;;;;;;;;;;5028389;28;20025;-81
2024/01/17 13:20:34;;;;;;;6.25;4.30;;;;;;;;;;5028636;28;20343;-79
2024/01/17 13:23:00;;;;;;;11.80;5.13;;;;;;;;;;5025285;28;20043;-80
2024/01/17 13:25:25;;;;;;;15.13;7.63;;;;;;;;;;5026215;28;20912;-80
2024/01/17 13:27:55;;;;;;;6.88;4.65;;;;;;;;;;5027923;28;20037;-79
2024/01/17 13:30:21;;;;;;;;;;;;;;;;;;5027157;28;20112;-79
2024/01/17 13:32:47;;;;;;;6.25;4.25;;;;;;;;;;5027615;28;20043;-82
2024/01/17 13:35:12;;;;;;;5.45;3.53;;;;;;;;;;5028502;28;20029;-79
2024/01/17 13:37:37;;;;;;;4.55;2.78;;;;;;;;;;5028088;28;20022;-79
2024/01/17 13:40:03;;;;;;;8.18;5.85;;;;;;;;;;5028370;28;20021;-80
2024/01/17 13:42:29;;;;;;;8.70;5.13;;;;;;;;;;5029893;28;20056;-79
2024/01/17 13:44:54;;;;;;;9.52;7.13;;;;;;;;;;5030633;28;20083;-78
2024/01/17 13:47:20;;;;;;;10.63;7.60;;;;;;;;;;5030630;28;20088;-79
2024/01/17 13:49:46;;;;;;;14.35;5.43;;;;;;;;;;5031791;28;20064;-79
2024/01/17 13:52:20;;;;;;;8.50;6.25;;;;;;;;;;5032372;28;20448;-79
2024/01/17 13:54:46;;;;;;;10.80;7.22;;;;;;;;;;5028751;28;20457;-80
2024/01/17 13:57:11;;;;;;;10.75;5.75;;;;;;;;;;5032201;28;20029;-80
2024/01/17 13:59:39;;;;;;;6.40;5.07;;;;;;;;;;5031933;28;20049;-79
2024/01/17 14:02:05;;;;;;;8.30;5.78;;;;;;;;;;5029282;28;20440;-79
2024/01/17 14:04:30;;;;;;;10.00;7.15;;;;;;;;;;5030813;28;20033;-80
2024/01/17 14:06:56;;;;;;;10.63;5.00;;;;;;;;;;5029248;28;20091;-79
2024/01/17 14:09:23;;;;;;;18.13;8.50;;;;;;;;;;5030607;28;20392;-80
2024/01/17 14:11:50;;;;;;;10.63;7.03;;;;;;;;;;5031061;28;20075;-81
2024/01/17 14:14:16;;;;;;;12.43;5.65;;;;;;;;;;5030442;28;20458;-79
2024/01/17 14:16:41;;;;;;;13.00;7.15;;;;;;;;;;5029282;28;20068;-79
2024/01/17 14:19:06;;;;;;;17.52;7.70;;;;;;;;;;5030212;28;20436;-79
2024/01/17 14:21:32;;;;;;;10.32;5.60;;;;;;;;;;5031328;28;20455;-80
2024/01/17 14:23:57;;;;;;;10.23;5.50;;;;;;;;;;5031013;28;20049;-79
2024/01/17 14:26:23;;;;;;;10.20;4.10;;;;;;;;;;5028914;28;20040;-79
2024/01/17 14:28:48;;;;;;;4.53;4.13;;;;;;;;;;5031136;28;20059;-80
2024/01/17 14:31:14;;;;;;;11.77;6.30;;;;;;;;;;5030534;28;20036;-79
2024/01/17 14:33:40;;;;;;;6.63;4.80;;;;;;;;;;5029054;28;20044;-79
2024/01/17 14:36:06;;;;;;;6.70;5.45;;;;;;;;;;5029419;28;20480;-79
2024/01/17 14:38:31;;;;;;;5.32;4.25;;;;;;;;;;5029618;28;20477;-78